createdAt,value
2022-10-22T00:01:28.817Z,1.75
2022-10-22T00:03:55.184Z,1.60
2022-10-22T00:06:21.891Z,1.60
2022-10-22T00:08:48.331Z,1.45
2022-10-22T00:11:15.821Z,1.65
2022-10-22T00:13:42.495Z,1.30
2022-10-22T00:16:09.799Z,1.50
2022-10-22T00:18:36.552Z,1.98
2022-10-22T00:21:03.226Z,1.52
2022-10-22T00:23:29.896Z,1.40
2022-10-22T00:25:56.302Z,1.50
2022-10-22T00:28:23.269Z,1.55
2022-10-22T00:30:55.269Z,1.95
2022-10-22T00:33:21.717Z,1.63
2022-10-22T00:35:48.052Z,1.40
2022-10-22T00:38:14.474Z,1.90
2022-10-22T00:40:40.834Z,1.58
2022-10-22T00:43:10.333Z,1.48
2022-10-22T00:45:36.698Z,1.65
2022-10-22T00:48:10.897Z,1.75
2022-10-22T00:50:43.540Z,1.60
2022-10-22T00:53:20.122Z,1.52
2022-10-22T00:55:48.034Z,1.60
2022-10-22T00:58:15.376Z,1.80
2022-10-22T01:00:42.350Z,1.25
2022-10-22T01:03:08.870Z,1.85
2022-10-22T01:05:43.288Z,1.48
2022-10-22T01:08:13.074Z,1.30
2022-10-22T01:10:51.660Z,1.20
2022-10-22T01:13:47.641Z,1.40
2022-10-22T01:16:23.352Z,1.30
2022-10-22T01:18:58.668Z,1.30
2022-10-22T01:21:31.517Z,1.23
2022-10-22T01:24:16.682Z,1.23
2022-10-22T01:26:52.485Z,1.08
2022-10-22T01:29:22.031Z,0.98
2022-10-22T01:31:52.096Z,1.27
2022-10-22T01:34:19.018Z,1.10
2022-10-22T01:36:46.779Z,1.10
2022-10-22T01:39:14.610Z,1.13
2022-10-22T01:41:43.367Z,0.90
2022-10-22T01:44:22.658Z,1.25
2022-10-22T01:46:51.334Z,0.90
2022-10-22T01:49:25.175Z,1.10
2022-10-22T01:52:14.276Z,0.73
2022-10-22T01:54:43.886Z,0.77
2022-10-22T01:57:22.721Z,0.90
2022-10-22T01:59:52.927Z,0.80
2022-10-22T02:02:22.285Z,0.80
2022-10-22T02:04:50.825Z,0.77
2022-10-22T02:07:19.114Z,0.85
2022-10-22T02:09:45.882Z,0.90
2022-10-22T02:12:13.453Z,1.08
2022-10-22T02:14:41.618Z,0.80
2022-10-22T02:17:10.356Z,0.90
2022-10-22T02:19:46.346Z,1.05
2022-10-22T02:22:13.068Z,1.33
2022-10-22T02:24:39.534Z,1.95
2022-10-22T02:27:05.940Z,1.80
2022-10-22T02:29:36.717Z,1.40
2022-10-22T02:32:03.604Z,1.50
2022-10-22T02:34:31.162Z,1.00
2022-10-22T02:36:59.408Z,1.10
2022-10-22T02:39:26.403Z,1.10
2022-10-22T02:41:52.875Z,1.30
2022-10-22T02:44:21.142Z,0.93
2022-10-22T02:46:48.291Z,1.05
2022-10-22T02:49:14.690Z,0.65
2022-10-22T02:51:41.069Z,0.60
2022-10-22T02:54:07.500Z,0.60
2022-10-22T02:56:33.970Z,0.68
2022-10-22T02:59:00.342Z,0.80
2022-10-22T03:01:26.740Z,0.80
2022-10-22T03:03:53.102Z,0.90
2022-10-22T03:06:20.328Z,1.00
2022-10-22T03:08:46.923Z,1.20
2022-10-22T03:11:13.425Z,1.10
2022-10-22T03:13:39.806Z,0.77
2022-10-22T03:16:06.446Z,1.20
2022-10-22T03:18:32.873Z,1.23
2022-10-22T03:21:22.557Z,1.40
2022-10-22T03:23:48.979Z,1.10
2022-10-22T03:26:15.452Z,1.20
2022-10-22T03:28:42.020Z,1.10
2022-10-22T03:31:08.498Z,1.10
2022-10-22T03:33:34.923Z,0.80
2022-10-22T03:36:01.662Z,1.48
2022-10-22T03:38:28.790Z,1.40
2022-10-22T03:40:55.232Z,1.45
2022-10-22T03:43:21.613Z,1.08
2022-10-22T03:45:47.989Z,1.65
2022-10-22T03:48:14.484Z,1.08
2022-10-22T03:50:40.902Z,1.63
2022-10-22T03:53:10.455Z,1.40
2022-10-22T03:55:38.225Z,2.00
2022-10-22T03:58:05.128Z,2.15
2022-10-22T04:03:26.866Z,1.70
2022-10-22T04:05:53.291Z,0.90
2022-10-22T04:08:19.712Z,1.02
2022-10-22T04:10:51.027Z,0.80
2022-10-22T04:13:17.391Z,0.75
2022-10-22T04:15:43.794Z,1.48
2022-10-22T04:18:10.338Z,0.82
2022-10-22T04:20:36.759Z,1.33
2022-10-22T04:23:03.103Z,1.50
2022-10-22T04:25:29.601Z,1.20
2022-10-22T04:27:56.066Z,0.90
2022-10-22T04:30:22.428Z,2.45
2022-10-22T04:32:48.833Z,2.03
2022-10-22T04:35:15.644Z,1.17
2022-10-22T04:37:42.530Z,1.70
2022-10-22T04:40:09.436Z,2.15
2022-10-22T04:42:35.816Z,1.08
2022-10-22T04:45:02.194Z,1.20
2022-10-22T04:47:28.559Z,1.05
2022-10-22T04:49:55.016Z,1.00
2022-10-22T04:52:21.376Z,1.40
2022-10-22T04:54:47.771Z,0.80
2022-10-22T04:57:14.512Z,1.30
2022-10-22T04:59:40.932Z,1.60
2022-10-22T05:02:07.345Z,1.40
2022-10-22T05:04:33.956Z,1.60
2022-10-22T05:07:00.351Z,0.90
2022-10-22T05:09:26.715Z,0.98
2022-10-22T05:11:53.222Z,0.80
2022-10-22T05:14:23.797Z,1.00
2022-10-22T05:16:50.867Z,1.00
2022-10-22T05:19:19.694Z,1.85
2022-10-22T05:21:46.148Z,0.90
2022-10-22T05:24:12.938Z,1.15
2022-10-22T05:26:39.347Z,0.68
2022-10-22T05:29:05.723Z,1.00
2022-10-22T05:31:32.119Z,0.60
2022-10-22T05:33:58.597Z,0.60
2022-10-22T05:36:25.073Z,0.80
2022-10-22T05:38:51.507Z,0.60
2022-10-22T05:41:19.880Z,1.20
2022-10-22T05:43:46.649Z,1.00
2022-10-22T05:46:18.687Z,0.70
2022-10-22T05:48:51.730Z,0.80
2022-10-22T05:51:18.615Z,0.60
2022-10-22T05:53:45.340Z,0.70
2022-10-22T05:56:13.222Z,0.90
2022-10-22T05:58:39.684Z,0.90
2022-10-22T06:01:16.518Z,0.85
2022-10-22T06:03:43.137Z,0.85
2022-10-22T06:06:18.746Z,0.82
2022-10-22T06:08:46.419Z,0.70
2022-10-22T06:11:13.245Z,0.98
2022-10-22T06:13:39.697Z,1.45
2022-10-22T06:16:06.135Z,1.42
2022-10-22T06:18:33.019Z,1.08
2022-10-22T06:21:04.066Z,1.92
2022-10-22T06:23:30.490Z,1.33
2022-10-22T06:25:58.151Z,1.42
2022-10-22T06:30:57.680Z,0.70
2022-10-22T06:33:24.101Z,0.70
2022-10-22T06:35:50.475Z,0.60
2022-10-22T06:38:16.991Z,0.75
2022-10-22T06:40:44.840Z,0.60
2022-10-22T06:43:14.864Z,0.70
2022-10-22T06:45:41.413Z,0.90
2022-10-22T06:48:07.917Z,0.60
2022-10-22T06:50:34.974Z,0.73
2022-10-22T06:53:01.534Z,1.15
2022-10-22T06:55:28.037Z,1.13
2022-10-22T06:57:55.412Z,1.23
2022-10-22T07:00:22.315Z,1.85
2022-10-22T07:02:57.833Z,1.20
2022-10-22T07:05:25.777Z,0.82
2022-10-22T07:07:52.157Z,1.08
2022-10-22T07:10:18.702Z,1.70
2022-10-22T07:12:45.122Z,0.77
2022-10-22T07:15:11.777Z,1.15
2022-10-22T07:20:10.095Z,0.70
2022-10-22T07:22:36.550Z,1.00
2022-10-22T07:25:06.630Z,1.00
2022-10-22T07:27:33.947Z,0.77
2022-10-22T07:30:01.430Z,1.88
2022-10-22T07:32:27.914Z,1.42
2022-10-22T07:34:54.339Z,1.40
2022-10-22T07:37:23.427Z,2.05
2022-10-22T07:39:50.719Z,1.20
2022-10-22T07:42:17.272Z,1.95
2022-10-22T07:44:43.641Z,2.20
2022-10-22T07:47:10.091Z,1.60
2022-10-22T07:49:36.449Z,1.70
2022-10-22T07:52:02.901Z,1.60
2022-10-22T07:54:29.325Z,2.72
2022-10-22T07:56:55.734Z,2.75
2022-10-22T07:59:22.171Z,2.83
2022-10-22T08:01:48.545Z,1.40
2022-10-22T08:04:14.901Z,1.10
2022-10-22T08:06:44.582Z,0.75
2022-10-22T08:09:13.976Z,0.70
2022-10-22T08:11:40.697Z,0.90
2022-10-22T08:14:07.538Z,1.02
2022-10-22T08:16:42.860Z,0.80
2022-10-22T08:19:09.482Z,1.00
2022-10-22T08:21:35.954Z,1.00
2022-10-22T08:24:02.366Z,1.10
2022-10-22T08:26:28.833Z,1.10
2022-10-22T08:28:55.218Z,1.00
2022-10-22T08:31:21.663Z,0.80
2022-10-22T08:33:48.103Z,0.90
2022-10-22T08:36:14.523Z,0.95
2022-10-22T08:38:40.960Z,0.82
2022-10-22T08:41:15.820Z,0.90
2022-10-22T08:44:04.280Z,0.95
2022-10-22T08:46:51.084Z,1.40
2022-10-22T08:49:21.047Z,1.13
2022-10-22T08:51:47.770Z,1.00
2022-10-22T08:54:19.035Z,1.02
2022-10-22T08:56:47.858Z,0.90
2022-10-22T08:59:19.425Z,0.98
2022-10-22T09:01:46.932Z,1.00
2022-10-22T09:04:33.650Z,0.93
2022-10-22T09:07:00.463Z,1.33
2022-10-22T09:09:29.870Z,1.27
2022-10-22T09:11:57.689Z,1.08
2022-10-22T09:14:24.673Z,0.90
2022-10-22T09:16:54.157Z,0.93
2022-10-22T09:19:41.795Z,1.10
2022-10-22T09:22:25.513Z,0.98
2022-10-22T09:24:58.526Z,1.23
2022-10-22T09:27:30.182Z,1.23
2022-10-22T09:29:56.759Z,1.02
2022-10-22T09:32:23.209Z,1.00
2022-10-22T09:34:50.318Z,1.40
2022-10-22T09:37:17.872Z,1.40
2022-10-22T09:39:45.593Z,1.05
2022-10-22T09:42:14.661Z,1.02
2022-10-22T09:44:44.879Z,1.00
2022-10-22T09:47:37.327Z,1.20
2022-10-22T09:50:26.746Z,1.20
2022-10-22T09:53:00.703Z,1.00
2022-10-22T09:55:27.474Z,1.30
2022-10-22T09:57:59.002Z,1.55
2022-10-22T10:00:26.396Z,1.13
2022-10-22T10:02:57.227Z,1.05
2022-10-22T10:05:34.282Z,1.10
2022-10-22T10:08:14.155Z,0.80
2022-10-22T10:10:46.947Z,1.20
2022-10-22T10:13:30.705Z,1.20
2022-10-22T10:15:57.137Z,1.55
2022-10-22T10:18:43.390Z,1.10
2022-10-22T10:23:53.905Z,1.50
2022-10-22T10:28:58.160Z,1.30
2022-10-22T10:31:27.619Z,1.23
2022-10-22T10:34:09.279Z,1.25
2022-10-22T10:36:53.979Z,1.10
2022-10-22T10:39:20.357Z,1.70
2022-10-22T10:41:58.897Z,1.33
2022-10-22T10:44:31.275Z,1.73
2022-10-22T10:47:03.790Z,1.17
2022-10-22T10:49:32.858Z,1.00
2022-10-22T10:52:22.418Z,1.20
2022-10-22T10:54:55.332Z,1.10
2022-10-22T10:57:31.867Z,1.25
2022-10-22T11:00:01.944Z,0.90
2022-10-22T11:02:48.769Z,1.08
2022-10-22T11:05:26.472Z,1.13
2022-10-22T11:07:56.907Z,1.23
2022-10-22T11:10:42.115Z,1.15
2022-10-22T11:13:15.115Z,1.30
2022-10-22T11:15:45.157Z,1.25
2022-10-22T11:18:18.641Z,1.40
2022-10-22T11:23:20.783Z,1.30
2022-10-22T11:25:49.261Z,1.20
2022-10-22T11:28:48.261Z,1.60
2022-10-22T11:31:16.162Z,2.00
2022-10-22T11:33:47.676Z,1.35
2022-10-22T11:36:14.373Z,1.33
2022-10-22T11:38:40.907Z,1.20
2022-10-22T11:41:11.796Z,1.20
2022-10-22T11:43:57.754Z,1.40
2022-10-22T11:46:24.384Z,1.10
2022-10-22T11:49:17.594Z,1.02
2022-10-22T11:51:47.418Z,1.20
2022-10-22T11:54:29.329Z,1.02
2022-10-22T11:57:32.354Z,1.27
2022-10-22T12:00:00.923Z,1.73
2022-10-22T12:02:39.960Z,1.20
2022-10-22T12:05:18.864Z,1.48
2022-10-22T12:07:54.854Z,1.15
2022-10-22T12:10:22.235Z,1.58
2022-10-22T12:13:01.569Z,1.25
2022-10-22T12:15:28.588Z,1.63
2022-10-22T12:18:02.064Z,1.02
2022-10-22T12:22:55.321Z,1.30
2022-10-22T12:25:22.788Z,1.90
2022-10-22T12:27:54.810Z,1.20
2022-10-22T12:30:25.899Z,1.05
2022-10-22T12:32:54.287Z,2.30
2022-10-22T12:35:22.256Z,2.30
2022-10-22T12:37:55.330Z,1.95
2022-10-22T12:40:23.472Z,1.85
2022-10-22T12:42:51.221Z,1.95
2022-10-22T12:45:18.302Z,2.17
2022-10-22T12:47:48.474Z,2.45
2022-10-22T12:50:19.627Z,1.60
2022-10-22T12:52:47.283Z,2.08
2022-10-22T12:55:17.668Z,1.60
2022-10-22T12:57:46.114Z,1.80
2022-10-22T13:00:23.366Z,2.03
2022-10-22T13:02:49.965Z,2.28
2022-10-22T13:05:19.413Z,1.35
2022-10-22T13:07:53.416Z,1.63
2022-10-22T13:10:19.827Z,1.30
2022-10-22T13:12:50.360Z,1.60
2022-10-22T13:15:19.992Z,1.50
2022-10-22T13:17:47.496Z,1.55
2022-10-22T13:20:20.929Z,1.38
2022-10-22T13:25:13.585Z,1.55
2022-10-22T13:27:46.838Z,2.90
2022-10-22T13:30:23.911Z,1.95
2022-10-22T13:32:54.578Z,1.20
2022-10-22T13:35:23.144Z,2.53
2022-10-22T13:37:49.534Z,1.42
2022-10-22T13:40:16.162Z,1.60
2022-10-22T13:42:42.846Z,1.05
2022-10-22T13:45:09.428Z,2.17
2022-10-22T13:47:35.922Z,1.15
2022-10-22T13:50:04.120Z,1.35
2022-10-22T13:52:39.234Z,2.13
2022-10-22T13:55:17.754Z,1.70
2022-10-22T13:57:44.710Z,1.67
2022-10-22T14:00:15.106Z,1.23
2022-10-22T14:02:42.244Z,1.45
2022-10-22T14:05:09.584Z,1.10
2022-10-22T14:07:36.421Z,1.60
2022-10-22T14:10:03.725Z,1.20
2022-10-22T14:12:30.164Z,2.25
2022-10-22T14:17:24.035Z,2.28
2022-10-22T14:19:50.487Z,2.05
2022-10-22T14:22:18.077Z,1.02
2022-10-22T14:24:45.163Z,2.10
2022-10-22T14:27:12.559Z,2.28
2022-10-22T14:29:39.112Z,1.30
2022-10-22T14:32:21.836Z,3.30
2022-10-22T14:34:48.255Z,1.33
2022-10-22T14:37:16.446Z,1.40
2022-10-22T14:39:43.137Z,1.75
2022-10-22T14:42:11.355Z,2.35
2022-10-22T14:44:37.773Z,1.13
2022-10-22T14:47:04.197Z,1.60
2022-10-22T14:49:30.657Z,1.30
2022-10-22T14:51:57.042Z,1.63
2022-10-22T14:54:23.497Z,1.70
2022-10-22T14:56:50.041Z,1.30
2022-10-22T14:59:16.398Z,1.95
2022-10-22T15:01:42.822Z,2.20
2022-10-22T15:04:09.770Z,1.42
2022-10-22T15:06:36.128Z,3.35
2022-10-22T15:09:03.032Z,1.40
2022-10-22T15:11:29.584Z,1.40
2022-10-22T15:13:55.999Z,1.70
2022-10-22T15:16:22.363Z,1.88
2022-10-22T15:18:48.848Z,2.20
2022-10-22T15:21:16.129Z,1.73
2022-10-22T15:23:42.759Z,2.45
2022-10-22T15:26:10.267Z,2.05
2022-10-22T15:28:37.365Z,2.10
2022-10-22T15:31:04.209Z,2.70
2022-10-22T15:33:30.900Z,3.17
2022-10-22T15:35:57.469Z,2.40
2022-10-22T15:41:05.819Z,1.98
2022-10-22T15:43:32.726Z,1.70
2022-10-22T15:46:08.296Z,1.90
2022-10-22T15:48:34.641Z,2.08
2022-10-22T15:51:01.035Z,1.98
2022-10-22T15:53:27.447Z,2.80
2022-10-22T15:55:55.270Z,2.90
2022-10-22T15:58:21.776Z,2.70
2022-10-22T16:00:48.239Z,2.10
2022-10-22T16:03:14.727Z,2.65
2022-10-22T16:05:41.177Z,2.10
2022-10-22T16:08:07.605Z,2.33
2022-10-22T16:10:34.055Z,3.30
2022-10-22T16:13:00.510Z,3.78
2022-10-22T16:15:26.928Z,2.30
2022-10-22T16:17:53.381Z,3.20
2022-10-22T16:20:19.816Z,2.63
2022-10-22T16:22:48.975Z,2.85
2022-10-22T16:25:15.377Z,4.68
2022-10-22T16:27:41.778Z,5.63
2022-10-22T16:30:08.300Z,6.38
2022-10-22T16:32:34.745Z,6.07
2022-10-22T16:35:01.261Z,6.07
2022-10-22T16:37:27.887Z,4.05
2022-10-22T16:39:54.447Z,5.10
2022-10-22T16:42:20.880Z,4.45
2022-10-22T16:44:47.452Z,3.30
2022-10-22T16:47:13.947Z,3.20
2022-10-22T16:49:40.374Z,5.55
2022-10-22T16:52:06.728Z,4.90
2022-10-22T16:54:33.100Z,4.40
2022-10-22T16:56:59.468Z,4.88
2022-10-22T16:59:25.934Z,3.60
2022-10-22T17:01:52.424Z,5.10
2022-10-22T17:04:19.149Z,14.63
2022-10-22T17:06:45.662Z,11.90
2022-10-22T17:09:12.166Z,11.40
2022-10-22T17:11:40.229Z,6.90
2022-10-22T17:14:09.087Z,5.43
2022-10-22T17:16:35.624Z,4.70
2022-10-22T17:19:03.663Z,4.22
2022-10-22T17:21:30.173Z,4.60
2022-10-22T17:23:56.954Z,3.95
2022-10-22T17:26:23.795Z,4.70
2022-10-22T17:28:50.508Z,4.90
2022-10-22T17:31:19.885Z,4.25
2022-10-22T17:33:47.003Z,4.85
2022-10-22T17:36:13.736Z,4.60
2022-10-22T17:38:41.364Z,3.85
2022-10-22T17:41:11.459Z,3.67
2022-10-22T17:43:40.987Z,3.80
2022-10-22T17:46:08.746Z,5.15
2022-10-22T17:48:35.229Z,3.63
2022-10-22T17:51:05.473Z,3.92
2022-10-22T17:53:31.903Z,4.07
2022-10-22T17:55:59.901Z,3.63
2022-10-22T17:58:26.362Z,3.90
2022-10-22T18:00:52.897Z,4.20
2022-10-22T18:03:19.664Z,4.35
2022-10-22T18:05:46.121Z,4.20
2022-10-22T18:08:12.502Z,4.00
2022-10-22T18:10:39.593Z,5.38
2022-10-22T18:13:06.056Z,6.40
2022-10-22T18:15:33.917Z,7.88
2022-10-22T18:18:00.249Z,5.97
2022-10-22T18:20:26.620Z,5.47
2022-10-22T18:22:54.046Z,4.93
2022-10-22T18:25:20.785Z,3.83
2022-10-22T18:27:47.399Z,3.50
2022-10-22T18:30:14.025Z,3.90
2022-10-22T18:32:40.454Z,4.10
2022-10-22T18:35:07.293Z,3.67
2022-10-22T18:37:36.064Z,3.97
2022-10-22T18:40:03.220Z,3.85
2022-10-22T18:42:32.810Z,3.70
2022-10-22T18:45:01.102Z,3.67
2022-10-22T18:47:27.604Z,4.15
2022-10-22T18:49:54.218Z,4.10
2022-10-22T18:52:20.886Z,4.38
2022-10-22T18:54:47.400Z,4.40
2022-10-22T18:57:13.816Z,3.90
2022-10-22T18:59:40.311Z,4.90
2022-10-22T19:02:06.952Z,4.35
2022-10-22T19:04:36.705Z,3.85
2022-10-22T19:07:04.021Z,4.85
2022-10-22T19:09:30.528Z,5.18
2022-10-22T19:11:57.011Z,4.55
2022-10-22T19:14:23.412Z,5.28
2022-10-22T19:16:49.950Z,5.00
2022-10-22T19:19:20.272Z,6.05
2022-10-22T19:21:46.764Z,4.70
2022-10-22T19:24:14.865Z,4.78
2022-10-22T19:26:46.517Z,4.40
2022-10-22T19:29:14.690Z,5.45
2022-10-22T19:31:42.228Z,4.50
2022-10-22T19:34:09.596Z,4.40
2022-10-22T19:36:35.965Z,4.53
2022-10-22T19:39:02.919Z,4.68
2022-10-22T19:41:30.010Z,4.97
2022-10-22T19:43:57.217Z,4.82
2022-10-22T19:46:24.144Z,5.25
2022-10-22T19:48:52.270Z,4.78
2022-10-22T19:51:20.313Z,4.22
2022-10-22T19:53:47.106Z,4.97
2022-10-22T19:56:16.969Z,4.50
2022-10-22T19:58:43.662Z,4.20
2022-10-22T20:01:11.598Z,3.95
2022-10-22T20:03:38.230Z,4.47
2022-10-22T20:06:05.917Z,4.15
2022-10-22T20:08:35.750Z,4.18
2022-10-22T20:11:02.288Z,4.68
2022-10-22T20:13:29.250Z,4.68
2022-10-22T20:15:56.178Z,4.20
2022-10-22T20:18:23.325Z,4.57
2022-10-22T20:20:49.896Z,5.55
2022-10-22T20:23:16.342Z,4.25
2022-10-22T20:25:43.796Z,4.72
2022-10-22T20:28:10.258Z,5.47
2022-10-22T20:30:40.585Z,4.88
2022-10-22T20:33:06.974Z,5.20
2022-10-22T20:35:33.349Z,4.70
2022-10-22T20:37:59.761Z,4.43
2022-10-22T20:40:26.736Z,5.05
2022-10-22T20:42:53.205Z,4.93
2022-10-22T20:45:19.580Z,5.10
2022-10-22T20:47:51.678Z,5.03
2022-10-22T20:50:27.678Z,4.20
2022-10-22T20:52:54.109Z,5.03
2022-10-22T20:55:20.798Z,5.38
2022-10-22T20:57:48.145Z,5.43
2022-10-22T21:00:14.785Z,5.93
2022-10-22T21:02:41.305Z,7.25
2022-10-22T21:05:07.921Z,6.28
2022-10-22T21:07:34.324Z,7.10
2022-10-22T21:10:00.688Z,7.18
2022-10-22T21:12:27.084Z,6.82
2022-10-22T21:14:53.465Z,6.03
2022-10-22T21:17:19.820Z,6.35
2022-10-22T21:19:46.210Z,7.18
2022-10-22T21:22:12.608Z,6.15
2022-10-22T21:24:39.017Z,6.00
2022-10-22T21:27:07.367Z,6.15
2022-10-22T21:29:33.740Z,6.60
2022-10-22T21:32:00.159Z,6.80
2022-10-22T21:34:27.125Z,6.68
2022-10-22T21:36:53.574Z,7.68
2022-10-22T21:39:19.946Z,7.13
2022-10-22T21:41:46.365Z,7.07
2022-10-22T21:44:12.768Z,5.38
2022-10-22T21:46:39.178Z,5.88
2022-10-22T21:49:05.611Z,6.13
2022-10-22T21:51:33.176Z,5.82
2022-10-22T21:54:00.027Z,5.78
2022-10-22T21:56:27.908Z,6.03
2022-10-22T21:58:54.563Z,5.93
2022-10-22T22:01:21.072Z,5.57
2022-10-22T22:03:51.477Z,6.15
2022-10-22T22:06:21.672Z,6.22
2022-10-22T22:08:49.244Z,5.88
2022-10-22T22:11:18.120Z,5.95
2022-10-22T22:13:44.855Z,4.90
2022-10-22T22:16:12.820Z,5.97
2022-10-22T22:18:39.842Z,6.00
2022-10-22T22:21:11.547Z,5.63
2022-10-22T22:23:38.575Z,5.40
2022-10-22T22:26:05.316Z,5.97
2022-10-22T22:28:32.501Z,5.55
2022-10-22T22:30:59.418Z,4.50
2022-10-22T22:33:26.080Z,3.90
2022-10-22T22:35:52.736Z,4.03
2022-10-22T22:38:19.445Z,4.47
2022-10-22T22:40:45.802Z,3.83
2022-10-22T22:43:12.171Z,4.90
2022-10-22T22:45:40.733Z,4.68
2022-10-22T22:48:07.739Z,4.97
2022-10-22T22:50:35.540Z,4.88
2022-10-22T22:53:01.967Z,4.80
2022-10-22T22:55:31.884Z,3.88
2022-10-22T22:57:58.635Z,4.28
2022-10-22T23:00:25.240Z,3.72
2022-10-22T23:02:55.473Z,5.13
2022-10-22T23:05:21.907Z,4.65
2022-10-22T23:07:48.598Z,5.32
2022-10-22T23:10:15.013Z,4.38
2022-10-22T23:12:41.664Z,5.43
2022-10-22T23:15:11.545Z,4.78
2022-10-22T23:17:38.583Z,5.00
2022-10-22T23:20:05.411Z,4.80
2022-10-22T23:22:31.840Z,4.85
2022-10-22T23:24:58.470Z,5.00
2022-10-22T23:27:25.031Z,5.55
2022-10-22T23:29:51.569Z,4.35
2022-10-22T23:32:17.979Z,5.25
2022-10-22T23:34:44.359Z,5.78
2022-10-22T23:37:11.957Z,5.20
2022-10-22T23:39:38.329Z,4.80
2022-10-22T23:42:04.848Z,5.78
2022-10-22T23:44:34.337Z,4.30
2022-10-22T23:47:00.882Z,5.10
2022-10-22T23:49:27.597Z,5.00
2022-10-22T23:51:54.061Z,5.63
2022-10-22T23:54:20.452Z,4.90
2022-10-22T23:56:47.339Z,4.30
